Time;durP1;ratioP1;P1;durP2;ratioP2;P2;SDS_P1;SDS_P2;PMS_P1;PMS_P2;Temp;Humidity;BMP_temperature;BMP_pressure;BME280_temperature;BME280_humidity;BME280_pressure;Samples;Min_cycle;Max_cycle;Signal;HPM_P1;HPM_P2
2022/08/17 00:00:18;;;;;;;18.15;16.15;;;;;;;;;;5080242;28;20175;-68
2022/08/17 00:03:04;;;;;;;18.25;16.45;;;;;;;;;;5079439;28;20511;-68
2022/08/17 00:05:33;;;;;;;19.40;16.15;;;;;;;;;;5084404;28;20056;-68
2022/08/17 00:08:00;;;;;;;17.65;15.82;;;;;;;;;;5089866;28;20499;-69
2022/08/17 00:10:26;;;;;;;19.55;16.77;;;;;;;;;;5084544;28;20045;-68
2022/08/17 00:12:52;;;;;;;17.88;15.95;;;;;;;;;;5088006;28;20492;-69
2022/08/17 00:15:20;;;;;;;17.88;16.00;;;;;;;;;;5092547;28;20053;-69
2022/08/17 00:17:49;;;;;;;17.95;15.98;;;;;;;;;;5082296;28;20048;-69
2022/08/17 00:20:16;;;;;;;19.30;16.17;;;;;;;;;;5073462;28;20057;-69
2022/08/17 00:22:45;;;;;;;17.02;15.02;;;;;;;;;;5082725;28;20140;-69
2022/08/17 00:25:15;;;;;;;17.20;15.55;;;;;;;;;;5079673;28;20048;-69
2022/08/17 00:27:41;;;;;;;16.83;14.55;;;;;;;;;;5074369;28;20053;-69
2022/08/17 00:30:09;;;;;;;17.98;16.08;;;;;;;;;;5089530;28;20464;-68
2022/08/17 00:32:37;;;;;;;16.85;15.32;;;;;;;;;;5086328;28;20182;-68
2022/08/17 00:35:24;;;;;;;16.92;15.30;;;;;;;;;;5089809;28;20053;-68
2022/08/17 00:37:51;;;;;;;18.23;15.32;;;;;;;;;;5090439;28;20049;-69
2022/08/17 00:40:17;;;;;;;17.38;15.55;;;;;;;;;;5080467;28;20048;-69
2022/08/17 00:42:46;;;;;;;15.35;13.82;;;;;;;;;;5088334;28;20472;-68
2022/08/17 00:45:13;;;;;;;19.83;15.55;;;;;;;;;;5086684;28;20131;-68
2022/08/17 00:47:40;;;;;;;16.67;14.98;;;;;;;;;;5084241;28;20056;-70
2022/08/17 00:50:08;;;;;;;16.55;14.95;;;;;;;;;;5087892;28;20055;-69
2022/08/17 00:52:37;;;;;;;15.77;14.07;;;;;;;;;;5081129;28;20053;-69
2022/08/17 00:55:05;;;;;;;15.93;14.23;;;;;;;;;;5076432;28;20052;-69
2022/08/17 00:57:35;;;;;;;16.95;14.38;;;;;;;;;;5080142;28;20052;-69
2022/08/17 01:00:08;;;;;;;15.75;13.25;;;;;;;;;;5086553;28;20086;-69
2022/08/17 01:02:38;;;;;;;15.43;13.85;;;;;;;;;;5084912;28;20055;-69
2022/08/17 01:05:09;;;;;;;15.07;13.60;;;;;;;;;;5081472;28;20508;-70
2022/08/17 01:07:35;;;;;;;16.00;13.43;;;;;;;;;;5086792;28;20057;-70
2022/08/17 01:10:04;;;;;;;15.45;13.82;;;;;;;;;;5085049;28;20071;-69
2022/08/17 01:12:32;;;;;;;14.13;12.55;;;;;;;;;;5083541;28;20562;-70
2022/08/17 01:14:58;;;;;;;13.80;12.43;;;;;;;;;;5088490;28;20060;-69
2022/08/17 01:17:27;;;;;;;14.60;13.15;;;;;;;;;;5075988;28;20049;-69
2022/08/17 01:19:53;;;;;;;14.40;12.95;;;;;;;;;;5085098;28;20507;-69
2022/08/17 01:22:21;;;;;;;14.82;13.30;;;;;;;;;;5084285;28;20053;-70
2022/08/17 01:24:52;;;;;;;16.35;13.57;;;;;;;;;;5075899;28;20059;-69
2022/08/17 01:27:19;;;;;;;16.55;14.82;;;;;;;;;;5086948;28;20511;-69
2022/08/17 01:29:48;;;;;;;16.75;14.25;;;;;;;;;;5085931;28;20057;-70
2022/08/17 01:32:15;;;;;;;14.75;13.25;;;;;;;;;;5088061;28;20052;-70
2022/08/17 01:34:41;;;;;;;16.23;13.70;;;;;;;;;;5090655;28;20925;-69
2022/08/17 01:37:16;;;;;;;15.15;13.63;;;;;;;;;;5081605;28;20163;-70
2022/08/17 01:39:58;;;;;;;14.40;12.68;;;;;;;;;;5074171;28;20207;-69
2022/08/17 01:42:43;;;;;;;14.82;12.63;;;;;;;;;;5084574;28;20064;-70
2022/08/17 01:45:12;;;;;;;15.68;12.80;;;;;;;;;;5080103;28;20056;-69
2022/08/17 01:47:39;;;;;;;14.23;12.82;;;;;;;;;;5091077;28;20053;-70
2022/08/17 01:50:11;;;;;;;17.38;13.18;;;;;;;;;;5089405;28;20495;-69
2022/08/17 01:52:38;;;;;;;15.15;13.55;;;;;;;;;;5078423;28;20482;-69
2022/08/17 01:55:05;;;;;;;15.68;14.15;;;;;;;;;;5076374;28;20500;-69
2022/08/17 01:57:32;;;;;;;14.88;13.45;;;;;;;;;;5076969;28;20045;-69
2022/08/17 01:59:58;;;;;;;17.17;14.00;;;;;;;;;;5079763;28;20048;-69
2022/08/17 02:02:24;;;;;;;15.45;13.93;;;;;;;;;;5074168;28;20061;-69
2022/08/17 02:04:57;;;;;;;15.60;13.95;;;;;;;;;;5089644;28;20128;-69
2022/08/17 02:07:23;;;;;;;17.92;15.23;;;;;;;;;;5086476;28;20539;-69
2022/08/17 02:09:52;;;;;;;15.95;14.35;;;;;;;;;;5089465;28;20111;-69
2022/08/17 02:12:19;;;;;;;15.48;13.93;;;;;;;;;;5081537;28;20057;-69
2022/08/17 02:15:08;;;;;;;16.70;15.00;;;;;;;;;;5088255;28;20060;-68
2022/08/17 02:17:34;;;;;;;19.52;14.45;;;;;;;;;;5091104;28;20049;-69
2022/08/17 02:20:00;;;;;;;19.10;16.90;;;;;;;;;;5086306;28;20057;-71
2022/08/17 02:22:27;;;;;;;18.75;16.85;;;;;;;;;;5076667;28;20053;-70
2022/08/17 02:24:54;;;;;;;21.02;18.95;;;;;;;;;;5080367;28;20513;-70
2022/08/17 02:27:27;;;;;;;19.95;18.05;;;;;;;;;;5082622;28;20057;-69
2022/08/17 02:29:53;;;;;;;20.45;18.55;;;;;;;;;;5082125;28;20052;-69
2022/08/17 02:32:22;;;;;;;19.95;17.88;;;;;;;;;;5088576;28;20633;-69
2022/08/17 02:34:53;;;;;;;20.85;17.45;;;;;;;;;;5086569;28;20053;-69
2022/08/17 02:37:20;;;;;;;19.45;17.35;;;;;;;;;;5085883;28;20044;-69
2022/08/17 02:39:46;;;;;;;19.15;17.15;;;;;;;;;;5088993;28;20055;-68
2022/08/17 02:42:13;;;;;;;19.75;17.85;;;;;;;;;;5078186;28;20065;-69
2022/08/17 02:44:40;;;;;;;20.75;18.30;;;;;;;;;;5078922;28;20059;-70
2022/08/17 02:47:08;;;;;;;19.98;17.88;;;;;;;;;;5087136;28;20062;-70
2022/08/17 02:49:34;;;;;;;21.77;18.73;;;;;;;;;;5083765;28;20053;-70
2022/08/17 02:52:02;;;;;;;21.05;18.17;;;;;;;;;;5071288;28;20527;-70
2022/08/17 02:54:28;;;;;;;21.00;18.88;;;;;;;;;;5083010;28;20074;-69
2022/08/17 02:57:07;;;;;;;22.08;18.90;;;;;;;;;;5091542;28;20142;-71
2022/08/17 02:59:33;;;;;;;23.25;18.40;;;;;;;;;;5082878;28;20060;-70
2022/08/17 03:02:01;;;;;;;22.95;18.45;;;;;;;;;;5088791;28;20064;-70
2022/08/17 03:04:28;;;;;;;18.52;16.58;;;;;;;;;;5077011;28;20089;-70
2022/08/17 03:06:54;;;;;;;22.00;17.75;;;;;;;;;;5085306;28;20053;-70
2022/08/17 03:09:22;;;;;;;18.48;15.75;;;;;;;;;;5093950;28;20583;-70
2022/08/17 03:11:49;;;;;;;17.50;15.75;;;;;;;;;;5086360;28;20092;-69
2022/08/17 03:14:20;;;;;;;16.52;14.85;;;;;;;;;;5088276;28;20060;-69
2022/08/17 03:16:51;;;;;;;16.48;14.75;;;;;;;;;;5089863;28;20520;-69
2022/08/17 03:19:17;;;;;;;13.68;12.27;;;;;;;;;;5093215;28;20048;-71
2022/08/17 03:21:44;;;;;;;14.25;12.77;;;;;;;;;;5088942;28;20057;-69
2022/08/17 03:24:10;;;;;;;14.35;12.85;;;;;;;;;;5091328;28;20055;-69
2022/08/17 03:26:36;;;;;;;14.27;12.88;;;;;;;;;;5077779;28;20048;-68
2022/08/17 03:29:03;;;;;;;16.77;13.57;;;;;;;;;;5079325;28;20055;-70
2022/08/17 03:31:30;;;;;;;13.30;12.00;;;;;;;;;;5089617;28;20076;-71
2022/08/17 03:33:56;;;;;;;14.60;13.10;;;;;;;;;;5081534;28;20059;-70
2022/08/17 03:36:24;;;;;;;13.65;12.20;;;;;;;;;;5074875;28;20056;-70
2022/08/17 03:38:50;;;;;;;12.63;11.32;;;;;;;;;;5092539;28;20045;-71
2022/08/17 03:41:16;;;;;;;10.75;9.65;;;;;;;;;;5085490;28;20487;-69
2022/08/17 03:43:43;;;;;;;10.93;9.82;;;;;;;;;;5085616;28;20055;-70
2022/08/17 03:57:21;;;;;;;13.68;12.15;;;;;;;;;;5076467;28;20052;-69
2022/08/17 03:59:48;;;;;;;12.35;11.05;;;;;;;;;;5093247;28;20063;-70
2022/08/17 04:02:17;;;;;;;13.68;10.32;;;;;;;;;;5092159;28;20060;-69
2022/08/17 04:04:44;;;;;;;14.73;10.82;;;;;;;;;;5091846;28;20079;-70
2022/08/17 04:07:10;;;;;;;11.32;10.23;;;;;;;;;;5086511;28;20060;-69
2022/08/17 04:09:37;;;;;;;12.90;11.52;;;;;;;;;;5079331;28;20061;-71
2022/08/17 04:12:03;;;;;;;13.50;11.68;;;;;;;;;;5091843;28;20054;-69
2022/08/17 04:14:35;;;;;;;15.35;12.75;;;;;;;;;;5083930;28;20495;-72
2022/08/17 04:17:17;;;;;;;14.02;12.50;;;;;;;;;;5080816;28;20106;-69
2022/08/17 04:19:45;;;;;;;16.52;13.18;;;;;;;;;;5088658;28;20546;-70
2022/08/17 04:22:11;;;;;;;15.43;13.65;;;;;;;;;;5084622;28;20048;-69
2022/08/17 04:24:57;;;;;;;14.80;13.40;;;;;;;;;;5087110;28;20057;-69
2022/08/17 04:27:25;;;;;;;17.80;15.60;;;;;;;;;;5086293;28;20458;-71
2022/08/17 04:29:52;;;;;;;17.05;15.25;;;;;;;;;;5089696;28;20053;-71
2022/08/17 04:32:20;;;;;;;17.73;15.98;;;;;;;;;;5085888;28;20611;-69
2022/08/17 04:35:07;;;;;;;18.02;16.23;;;;;;;;;;5083590;28;20074;-71
2022/08/17 04:37:33;;;;;;;17.88;16.02;;;;;;;;;;5090579;28;20522;-70
2022/08/17 04:42:58;;;;;;;19.50;17.50;;;;;;;;;;5061308;28;20049;-70
2022/08/17 04:45:26;;;;;;;22.60;19.20;;;;;;;;;;5080600;28;20053;-69
2022/08/17 04:47:57;;;;;;;20.20;17.95;;;;;;;;;;5086511;28;20054;-69
2022/08/17 04:50:23;;;;;;;22.00;18.70;;;;;;;;;;5076340;28;20139;-71
2022/08/17 04:52:50;;;;;;;23.77;19.30;;;;;;;;;;5090621;28;20531;-71
2022/08/17 04:55:17;;;;;;;21.75;19.45;;;;;;;;;;5092660;28;20074;-70
2022/08/17 04:57:43;;;;;;;19.80;17.70;;;;;;;;;;5075439;28;20056;-71
2022/08/17 05:00:10;;;;;;;21.38;18.40;;;;;;;;;;5090202;28;20059;-73
2022/08/17 05:02:44;;;;;;;17.52;15.68;;;;;;;;;;5085385;28;20079;-71
2022/08/17 05:05:20;;;;;;;17.20;15.45;;;;;;;;;;5092004;28;20048;-71
2022/08/17 05:07:47;;;;;;;18.33;15.00;;;;;;;;;;5087049;28;20049;-70
2022/08/17 05:10:13;;;;;;;16.52;14.88;;;;;;;;;;5092078;28;20052;-70
2022/08/17 05:12:39;;;;;;;16.05;14.23;;;;;;;;;;5089443;28;20076;-70
2022/08/17 05:15:09;;;;;;;16.40;14.23;;;;;;;;;;5092428;28;20063;-70
2022/08/17 05:17:35;;;;;;;15.98;12.98;;;;;;;;;;5091126;28;20063;-69
2022/08/17 05:20:02;;;;;;;14.77;11.90;;;;;;;;;;5083902;28;20516;-70
2022/08/17 05:22:28;;;;;;;13.02;11.27;;;;;;;;;;5076419;28;20579;-70
2022/08/17 05:24:55;;;;;;;13.07;10.70;;;;;;;;;;5081308;28;20059;-71
2022/08/17 05:27:23;;;;;;;13.32;10.60;;;;;;;;;;5080933;28;20140;-71
2022/08/17 05:29:53;;;;;;;11.50;10.32;;;;;;;;;;5085162;28;20052;-70
2022/08/17 05:32:21;;;;;;;11.70;9.35;;;;;;;;;;5074514;28;20520;-71
2022/08/17 05:35:05;;;;;;;12.13;9.50;;;;;;;;;;5084056;28;20087;-71
2022/08/17 05:37:32;;;;;;;10.35;8.60;;;;;;;;;;5085910;28;20140;-70
2022/08/17 05:39:58;;;;;;;9.52;8.63;;;;;;;;;;5085051;28;20168;-72
2022/08/17 05:42:27;;;;;;;10.38;8.45;;;;;;;;;;5088855;28;20131;-73
2022/08/17 05:44:56;;;;;;;9.38;7.38;;;;;;;;;;5091257;28;20139;-74
2022/08/17 05:47:23;;;;;;;8.65;6.53;;;;;;;;;;5088981;28;20052;-71
2022/08/17 05:49:50;;;;;;;5.78;5.10;;;;;;;;;;5088971;28;20052;-68
2022/08/17 05:52:22;;;;;;;6.88;5.55;;;;;;;;;;5086723;28;20056;-69
2022/08/17 05:54:57;;;;;;;14.48;5.30;;;;;;;;;;5091370;28;20551;-69
2022/08/17 05:57:23;;;;;;;;;;;;;;;;;;5089309;28;20056;-69
2022/08/17 06:00:07;;;;;;;5.80;4.88;;;;;;;;;;5087960;28;45944;-69
2022/08/17 06:02:57;;;;;;;7.43;5.20;;;;;;;;;;5090634;28;20056;-70
2022/08/17 06:05:26;;;;;;;5.93;5.35;;;;;;;;;;5091461;28;20074;-69
2022/08/17 06:07:58;;;;;;;5.97;5.32;;;;;;;;;;5088917;28;20055;-70
2022/08/17 06:10:38;;;;;;;6.22;5.55;;;;;;;;;;5076421;28;20099;-70
2022/08/17 06:13:14;;;;;;;8.45;5.35;;;;;;;;;;5079376;28;20526;-69
2022/08/17 06:15:50;;;;;;;6.03;5.45;;;;;;;;;;5091103;28;20120;-69
2022/08/17 06:18:17;;;;;;;6.32;5.65;;;;;;;;;;5083793;28;20056;-70
2022/08/17 06:20:49;;;;;;;8.98;6.00;;;;;;;;;;5077353;28;20045;-70
2022/08/17 06:23:21;;;;;;;7.32;5.72;;;;;;;;;;5078442;28;20103;-69
2022/08/17 06:25:50;;;;;;;8.82;6.82;;;;;;;;;;5074215;28;20057;-70
2022/08/17 06:28:24;;;;;;;7.13;6.43;;;;;;;;;;5087174;28;20056;-71
2022/08/17 06:30:56;;;;;;;8.50;6.70;;;;;;;;;;5093927;28;20058;-71
2022/08/17 06:33:36;;;;;;;8.07;7.28;;;;;;;;;;5086940;28;20114;-71
2022/08/17 06:36:10;;;;;;;9.27;7.78;;;;;;;;;;5103642;28;20055;-71
2022/08/17 06:39:00;;;;;;;8.23;7.47;;;;;;;;;;5089074;28;20049;-67
2022/08/17 06:41:42;;;;;;;11.10;8.02;;;;;;;;;;5090326;28;20489;-67
2022/08/17 06:44:14;;;;;;;13.13;9.35;;;;;;;;;;5087735;28;20530;-68
2022/08/17 06:47:07;;;;;;;9.77;7.63;;;;;;;;;;5082519;28;20060;-70
2022/08/17 06:49:42;;;;;;;13.85;9.23;;;;;;;;;;5091023;28;20053;-69
2022/08/17 06:52:27;;;;;;;11.50;9.55;;;;;;;;;;5089415;28;20057;-69
2022/08/17 06:55:22;;;;;;;10.73;8.65;;;;;;;;;;5086710;28;20054;-69
2022/08/17 06:57:51;;;;;;;11.30;9.00;;;;;;;;;;5082083;28;20053;-70
2022/08/17 07:00:19;;;;;;;10.98;9.88;;;;;;;;;;5084981;28;20060;-69
2022/08/17 07:02:58;;;;;;;11.55;10.07;;;;;;;;;;5090104;28;20053;-68
2022/08/17 07:05:45;;;;;;;11.27;10.10;;;;;;;;;;5076593;28;20056;-68
2022/08/17 07:08:34;;;;;;;11.77;9.82;;;;;;;;;;5083692;28;20048;-68
2022/08/17 07:11:06;;;;;;;11.90;10.52;;;;;;;;;;5081068;28;20080;-68
2022/08/17 07:13:36;;;;;;;12.93;10.55;;;;;;;;;;5080983;28;20053;-69
2022/08/17 07:16:11;;;;;;;11.73;10.38;;;;;;;;;;5072802;28;20511;-68
2022/08/17 07:18:38;;;;;;;11.55;10.15;;;;;;;;;;5088886;28;20064;-69
2022/08/17 07:21:08;;;;;;;12.20;10.95;;;;;;;;;;5086962;28;20334;-69
2022/08/17 07:23:59;;;;;;;12.02;10.50;;;;;;;;;;5074666;28;21536;-69
2022/08/17 07:26:27;;;;;;;14.43;10.40;;;;;;;;;;5090168;28;20055;-69
2022/08/17 07:28:55;;;;;;;13.00;10.32;;;;;;;;;;5090208;28;20052;-69
2022/08/17 07:31:22;;;;;;;10.88;9.60;;;;;;;;;;5089300;28;20090;-70
2022/08/17 07:34:03;;;;;;;11.32;9.43;;;;;;;;;;5086220;28;20056;-70
2022/08/17 07:36:32;;;;;;;10.48;9.38;;;;;;;;;;5084968;28;20056;-69
2022/08/17 07:39:00;;;;;;;10.93;9.40;;;;;;;;;;5083446;28;20045;-69
2022/08/17 07:41:30;;;;;;;11.52;10.32;;;;;;;;;;5081543;28;20052;-70
2022/08/17 07:44:16;;;;;;;12.63;10.45;;;;;;;;;;5091135;28;20510;-69
2022/08/17 07:49:34;;;;;;;11.73;10.05;;;;;;;;;;5091899;28;20055;-67
2022/08/17 07:52:03;;;;;;;12.40;11.00;;;;;;;;;;5089734;28;20070;-69
2022/08/17 07:54:49;;;;;;;16.38;11.25;;;;;;;;;;5092162;28;20488;-69
2022/08/17 07:57:18;;;;;;;12.43;11.18;;;;;;;;;;5074823;28;20048;-69
2022/08/17 08:00:00;;;;;;;13.88;11.70;;;;;;;;;;5094529;28;20056;-69
2022/08/17 08:02:37;;;;;;;15.32;12.25;;;;;;;;;;5090688;28;20057;-70
2022/08/17 08:05:03;;;;;;;;;;;;;;;;;;5088981;28;20059;-71
2022/08/17 08:07:55;;;;;;;12.18;10.98;;;;;;;;;;5081861;28;47298;-71
2022/08/17 08:10:34;;;;;;;13.48;11.32;;;;;;;;;;5057910;28;20492;-71
2022/08/17 08:13:04;;;;;;;13.23;11.40;;;;;;;;;;5092134;28;20057;-70
2022/08/17 08:15:42;;;;;;;14.18;12.68;;;;;;;;;;5092326;28;20058;-69
2022/08/17 08:18:22;;;;;;;14.95;11.85;;;;;;;;;;5087093;28;20063;-70
2022/08/17 08:21:11;;;;;;;13.52;12.13;;;;;;;;;;5092088;28;20543;-70
2022/08/17 08:23:45;;;;;;;12.57;11.25;;;;;;;;;;5080491;28;20049;-69
2022/08/17 08:26:14;;;;;;;12.13;10.30;;;;;;;;;;5083810;28;20482;-70
2022/08/17 08:28:50;;;;;;;11.55;9.77;;;;;;;;;;5087845;28;20084;-71
2022/08/17 08:31:40;;;;;;;12.60;9.32;;;;;;;;;;5092706;28;20063;-70
2022/08/17 08:34:22;;;;;;;9.85;8.80;;;;;;;;;;5080196;28;20048;-69
2022/08/17 08:37:27;;;;;;;9.65;8.75;;;;;;;;;;5088769;28;20060;-71
2022/08/17 08:40:18;;;;;;;11.35;9.40;;;;;;;;;;5089689;28;20055;-69
2022/08/17 08:42:50;;;;;;;9.40;8.48;;;;;;;;;;5085643;28;20091;-71
2022/08/17 08:45:37;;;;;;;10.13;9.10;;;;;;;;;;5080979;28;20106;-70
2022/08/17 08:48:14;;;;;;;10.68;9.68;;;;;;;;;;5075767;28;20064;-69
2022/08/17 08:51:15;;;;;;;10.52;9.52;;;;;;;;;;5073736;28;20056;-70
2022/08/17 08:54:08;;;;;;;9.70;8.73;;;;;;;;;;5072523;28;20057;-70
2022/08/17 08:56:43;;;;;;;11.43;8.07;;;;;;;;;;5086987;28;20048;-69
2022/08/17 08:59:41;;;;;;;7.20;6.40;;;;;;;;;;5085294;28;20685;-70
2022/08/17 09:02:21;;;;;;;7.45;5.95;;;;;;;;;;5089279;28;20111;-68
2022/08/17 09:04:51;;;;;;;6.70;6.03;;;;;;;;;;5089755;28;20049;-69
2022/08/17 09:07:43;;;;;;;6.93;5.85;;;;;;;;;;5090926;28;20059;-69
2022/08/17 09:10:18;;;;;;;8.70;5.40;;;;;;;;;;5091196;28;20056;-68
2022/08/17 09:12:54;;;;;;;6.07;5.45;;;;;;;;;;5088746;28;20056;-69
2022/08/17 09:15:26;;;;;;;8.32;4.93;;;;;;;;;;5094665;28;20060;-71
2022/08/17 09:17:55;;;;;;;6.88;5.68;;;;;;;;;;5111127;28;20059;-69
2022/08/17 09:21:00;;;;;;;6.13;5.60;;;;;;;;;;5092962;28;20053;-69
2022/08/17 09:23:37;;;;;;;6.82;6.13;;;;;;;;;;5089094;28;20052;-69
2022/08/17 09:26:15;;;;;;;7.28;5.55;;;;;;;;;;5091401;28;20052;-70
2022/08/17 09:28:45;;;;;;;6.10;5.50;;;;;;;;;;5088717;28;20059;-70
2022/08/17 09:31:16;;;;;;;6.63;5.93;;;;;;;;;;5088254;28;20063;-69
2022/08/17 09:33:44;;;;;;;6.07;5.47;;;;;;;;;;5077891;28;20081;-70
2022/08/17 09:36:14;;;;;;;6.05;5.43;;;;;;;;;;5090576;28;20048;-70
2022/08/17 09:39:00;;;;;;;6.38;5.82;;;;;;;;;;5084702;28;20053;-70
2022/08/17 09:41:47;;;;;;;6.70;6.00;;;;;;;;;;5090925;28;20488;-71
2022/08/17 09:44:20;;;;;;;9.77;6.75;;;;;;;;;;5071955;28;20052;-71
2022/08/17 09:46:58;;;;;;;12.13;7.80;;;;;;;;;;5089035;28;20496;-70
2022/08/17 09:49:39;;;;;;;12.43;9.13;;;;;;;;;;5089343;28;20053;-67
2022/08/17 09:52:17;;;;;;;15.13;7.85;;;;;;;;;;5076558;28;20061;-68
2022/08/17 09:54:44;;;;;;;8.93;8.02;;;;;;;;;;5090984;28;20045;-69
2022/08/17 09:57:13;;;;;;;11.55;8.85;;;;;;;;;;5092678;28;20491;-69
2022/08/17 10:00:15;;;;;;;10.35;9.27;;;;;;;;;;5084783;28;20052;-69
2022/08/17 10:02:56;;;;;;;10.15;8.95;;;;;;;;;;5073499;28;20467;-71
2022/08/17 10:05:30;;;;;;;10.82;8.90;;;;;;;;;;5082167;28;20051;-70
2022/08/17 10:08:02;;;;;;;10.10;8.40;;;;;;;;;;5071982;28;20064;-71
2022/08/17 10:10:34;;;;;;;8.50;7.70;;;;;;;;;;5082364;28;20522;-70
2022/08/17 10:13:09;;;;;;;10.35;9.25;;;;;;;;;;5088147;28;20060;-71
2022/08/17 10:15:45;;;;;;;10.57;9.32;;;;;;;;;;5101400;28;20060;-70
2022/08/17 10:18:36;;;;;;;11.85;9.98;;;;;;;;;;5091293;28;20488;-69
2022/08/17 10:26:50;;;;;;;10.15;9.15;;;;;;;;;;5090576;28;20095;-69
2022/08/17 10:29:27;;;;;;;9.23;8.32;;;;;;;;;;5076324;28;22166;-69
2022/08/17 10:31:59;;;;;;;11.88;8.07;;;;;;;;;;5086201;28;20045;-69
2022/08/17 10:34:49;;;;;;;8.68;7.78;;;;;;;;;;5079860;28;20149;-70
2022/08/17 10:37:18;;;;;;;9.52;7.88;;;;;;;;;;5084433;28;20052;-69
2022/08/17 10:39:57;;;;;;;14.43;8.27;;;;;;;;;;5088470;28;20053;-69
2022/08/17 10:42:26;;;;;;;8.10;7.30;;;;;;;;;;5085666;28;20559;-71
2022/08/17 10:45:19;;;;;;;8.07;7.00;;;;;;;;;;5088305;28;20056;-69
2022/08/17 10:47:58;;;;;;;9.63;8.27;;;;;;;;;;5083232;28;20058;-70
2022/08/17 10:50:46;;;;;;;9.00;8.10;;;;;;;;;;5091315;28;20059;-70
2022/08/17 10:53:31;;;;;;;8.75;7.95;;;;;;;;;;5091057;28;20135;-69
2022/08/17 10:56:12;;;;;;;9.23;8.30;;;;;;;;;;5082805;28;20057;-69
2022/08/17 10:58:48;;;;;;;9.68;8.57;;;;;;;;;;5073328;28;20151;-70
2022/08/17 11:01:15;;;;;;;10.95;9.88;;;;;;;;;;5088787;28;20084;-69
2022/08/17 11:04:07;;;;;;;11.57;10.43;;;;;;;;;;5090639;28;20053;-72
2022/08/17 11:06:41;;;;;;;12.85;11.60;;;;;;;;;;5073356;28;20511;-70
2022/08/17 11:09:27;;;;;;;13.00;11.70;;;;;;;;;;5081274;28;20488;-69
2022/08/17 11:11:53;;;;;;;12.40;11.20;;;;;;;;;;5085248;28;20099;-70
2022/08/17 11:14:22;;;;;;;14.10;12.70;;;;;;;;;;5083809;28;20070;-71
2022/08/17 11:17:01;;;;;;;16.60;13.25;;;;;;;;;;5089253;28;20056;-72
2022/08/17 11:19:47;;;;;;;14.50;13.00;;;;;;;;;;5080227;28;20413;-72
2022/08/17 11:22:16;;;;;;;15.25;13.75;;;;;;;;;;5094571;28;20991;-71
2022/08/17 11:24:47;;;;;;;15.88;13.70;;;;;;;;;;5092098;28;20058;-71
2022/08/17 11:27:22;;;;;;;15.73;13.50;;;;;;;;;;5093437;28;20044;-70
2022/08/17 11:30:00;;;;;;;16.15;14.43;;;;;;;;;;5092834;28;20492;-69
2022/08/17 11:32:48;;;;;;;16.23;14.63;;;;;;;;;;5094035;28;20060;-69
2022/08/17 11:35:20;;;;;;;18.30;14.82;;;;;;;;;;5079513;28;20049;-70
2022/08/17 11:37:52;;;;;;;16.75;15.02;;;;;;;;;;5084135;28;20474;-71
2022/08/17 11:40:30;;;;;;;21.88;18.02;;;;;;;;;;5093432;28;20842;-69
2022/08/17 11:43:09;;;;;;;19.42;17.42;;;;;;;;;;5074352;28;20468;-69
2022/08/17 11:45:35;;;;;;;18.60;16.77;;;;;;;;;;5093196;28;20554;-68
2022/08/17 11:53:44;;;;;;;25.95;18.25;;;;;;;;;;5088560;28;20056;-67
2022/08/17 11:56:30;;;;;;;27.42;19.55;;;;;;;;;;5093931;28;20510;-68
2022/08/17 11:58:57;;;;;;;21.30;18.88;;;;;;;;;;5093248;28;20063;-66
2022/08/17 12:01:25;;;;;;;23.25;20.17;;;;;;;;;;5093967;28;20053;-69
2022/08/17 12:03:56;;;;;;;21.60;19.30;;;;;;;;;;5085954;28;20048;-68
2022/08/17 12:06:26;;;;;;;26.15;20.48;;;;;;;;;;5094096;28;20056;-68
2022/08/17 12:09:12;;;;;;;23.85;19.73;;;;;;;;;;5091523;28;20049;-68
2022/08/17 12:11:48;;;;;;;24.45;20.10;;;;;;;;;;5083086;28;20053;-69
2022/08/17 12:14:35;;;;;;;25.25;21.35;;;;;;;;;;5083500;28;22207;-68
2022/08/17 12:17:23;;;;;;;24.98;22.20;;;;;;;;;;5079121;28;20057;-67
2022/08/17 12:20:13;;;;;;;27.35;21.30;;;;;;;;;;5094465;28;20058;-68
2022/08/17 12:22:40;;;;;;;;;;;;;;;;;;5103283;28;20511;-66
2022/08/17 12:25:16;;;;;;;25.23;18.92;;;;;;;;;;5090347;27;46341;-67
2022/08/17 12:27:45;;;;;;;24.90;22.33;;;;;;;;;;5080483;28;20058;-66
2022/08/17 12:30:31;;;;;;;26.42;22.08;;;;;;;;;;5074684;28;20068;-67
2022/08/17 12:32:58;;;;;;;23.65;20.77;;;;;;;;;;5102068;28;20054;-65
2022/08/17 12:35:28;;;;;;;25.50;21.98;;;;;;;;;;5092986;28;20510;-64
2022/08/17 12:37:56;;;;;;;25.17;20.88;;;;;;;;;;5096069;28;20172;-65
2022/08/17 12:40:25;;;;;;;26.27;21.73;;;;;;;;;;5093919;28;20055;-63
2022/08/17 12:42:56;;;;;;;24.27;21.83;;;;;;;;;;5090020;28;20840;-64
2022/08/17 12:45:25;;;;;;;24.80;22.05;;;;;;;;;;5090732;28;20051;-64
2022/08/17 12:48:06;;;;;;;27.48;23.40;;;;;;;;;;5090358;28;20505;-64
2022/08/17 12:50:37;;;;;;;24.15;21.52;;;;;;;;;;5092463;28;20058;-64
2022/08/17 12:53:15;;;;;;;25.50;22.83;;;;;;;;;;5091758;28;20051;-65
2022/08/17 12:55:43;;;;;;;30.00;24.73;;;;;;;;;;5092888;28;20058;-66
2022/08/17 12:58:11;;;;;;;27.67;23.65;;;;;;;;;;5091909;28;20048;-65
2022/08/17 13:00:43;;;;;;;26.25;23.02;;;;;;;;;;5093923;28;20079;-64
2022/08/17 13:03:18;;;;;;;26.92;24.02;;;;;;;;;;5087316;28;20103;-66
2022/08/17 13:05:50;;;;;;;29.23;24.98;;;;;;;;;;5100896;28;20135;-65
2022/08/17 13:08:18;;;;;;;28.42;25.33;;;;;;;;;;5076904;28;20545;-64
2022/08/17 13:11:00;;;;;;;29.55;26.08;;;;;;;;;;5080319;28;20053;-64
2022/08/17 13:13:28;;;;;;;30.95;26.50;;;;;;;;;;5091282;28;20049;-66
2022/08/17 13:15:55;;;;;;;28.95;25.85;;;;;;;;;;5086658;28;20135;-65
2022/08/17 13:18:30;;;;;;;28.35;23.77;;;;;;;;;;5090387;28;20044;-66
2022/08/17 13:20:56;;;;;;;;;;;;;;;;;;5091568;28;20583;-65
2022/08/17 13:23:25;;;;;;;27.52;24.63;;;;;;;;;;5090260;28;43635;-64
2022/08/17 13:25:54;;;;;;;30.58;26.27;;;;;;;;;;5087469;28;20045;-64
2022/08/17 13:28:24;;;;;;;29.05;24.73;;;;;;;;;;5081379;28;20052;-65
2022/08/17 13:31:20;;;;;;;27.88;24.88;;;;;;;;;;5080689;28;20052;-64
2022/08/17 13:33:47;;;;;;;31.05;27.27;;;;;;;;;;5088834;28;20044;-66
2022/08/17 13:36:28;;;;;;;30.92;27.08;;;;;;;;;;5087539;28;20447;-67
2022/08/17 13:39:05;;;;;;;32.33;26.15;;;;;;;;;;5080200;28;20964;-65
2022/08/17 13:41:33;;;;;;;36.08;25.73;;;;;;;;;;5090764;28;20058;-66
2022/08/17 13:43:59;;;;;;;30.48;25.00;;;;;;;;;;5092517;28;20147;-66
2022/08/17 13:46:30;;;;;;;30.30;24.98;;;;;;;;;;5092507;28;20059;-71
2022/08/17 13:49:01;;;;;;;28.48;25.38;;;;;;;;;;5083394;28;20519;-71
2022/08/17 13:51:32;;;;;;;30.63;26.02;;;;;;;;;;5092144;28;20062;-70
2022/08/17 13:53:59;;;;;;;28.63;24.75;;;;;;;;;;5092360;28;20505;-71
2022/08/17 13:56:26;;;;;;;32.08;24.77;;;;;;;;;;5090517;28;20052;-70
2022/08/17 13:59:06;;;;;;;30.20;25.38;;;;;;;;;;5090561;28;20060;-70
2022/08/17 14:01:43;;;;;;;33.22;26.40;;;;;;;;;;5083908;28;20049;-69
2022/08/17 14:04:17;;;;;;;28.85;25.30;;;;;;;;;;5084128;28;20081;-69
2022/08/17 14:06:46;;;;;;;30.17;25.13;;;;;;;;;;5081595;28;20063;-70
2022/08/17 14:09:18;;;;;;;31.27;26.25;;;;;;;;;;5092660;28;20059;-71
2022/08/17 14:11:46;;;;;;;30.35;25.45;;;;;;;;;;5083963;28;20056;-68
2022/08/17 14:14:13;;;;;;;26.92;23.95;;;;;;;;;;5089896;28;20144;-70
2022/08/17 14:16:40;;;;;;;29.98;24.50;;;;;;;;;;5092079;28;20976;-71
2022/08/17 14:19:11;;;;;;;32.53;26.65;;;;;;;;;;5084351;28;20057;-72
2022/08/17 14:21:39;;;;;;;31.30;25.33;;;;;;;;;;5091084;28;20587;-69
2022/08/17 14:24:07;;;;;;;28.33;25.00;;;;;;;;;;5091218;28;20052;-69
2022/08/17 14:26:33;;;;;;;31.98;26.15;;;;;;;;;;5093120;28;20048;-70
2022/08/17 14:29:00;;;;;;;31.67;26.27;;;;;;;;;;5076489;28;20053;-70
2022/08/17 14:31:26;;;;;;;29.95;25.58;;;;;;;;;;5095372;28;20505;-69
2022/08/17 14:33:53;;;;;;;29.33;25.48;;;;;;;;;;5087364;28;20063;-71
2022/08/17 14:36:19;;;;;;;31.40;24.95;;;;;;;;;;5091699;28;20139;-70
2022/08/17 14:38:46;;;;;;;29.30;25.70;;;;;;;;;;5089715;28;20059;-71
2022/08/17 14:41:16;;;;;;;31.38;26.48;;;;;;;;;;5086361;28;20063;-72
2022/08/17 14:43:47;;;;;;;27.98;24.98;;;;;;;;;;5091668;28;20057;-71
2022/08/17 14:46:14;;;;;;;31.80;24.50;;;;;;;;;;5092072;28;20084;-70
2022/08/17 14:48:40;;;;;;;27.08;23.98;;;;;;;;;;5089219;28;20079;-71
2022/08/17 14:51:06;;;;;;;28.17;23.95;;;;;;;;;;5087927;28;20423;-72
2022/08/17 14:53:33;;;;;;;25.48;22.70;;;;;;;;;;5093483;28;20127;-71
2022/08/17 14:56:00;;;;;;;28.50;24.38;;;;;;;;;;5094616;28;20053;-70
2022/08/17 14:58:28;;;;;;;29.58;22.98;;;;;;;;;;5094959;28;20590;-67
2022/08/17 15:00:55;;;;;;;24.58;21.98;;;;;;;;;;5087760;28;20049;-68
2022/08/17 15:03:22;;;;;;;25.92;21.48;;;;;;;;;;5094063;28;20060;-67
2022/08/17 15:05:48;;;;;;;27.00;23.08;;;;;;;;;;5092923;28;20062;-67
2022/08/17 15:08:18;;;;;;;25.33;22.10;;;;;;;;;;5093741;28;20090;-67
2022/08/17 15:10:44;;;;;;;27.88;24.02;;;;;;;;;;5093800;28;20056;-66
2022/08/17 15:13:14;;;;;;;25.52;22.08;;;;;;;;;;5093507;28;20061;-66
2022/08/17 15:15:40;;;;;;;22.55;19.80;;;;;;;;;;5087634;28;20584;-66
2022/08/17 15:18:07;;;;;;;24.83;21.75;;;;;;;;;;5090272;28;20057;-67
2022/08/17 15:20:34;;;;;;;26.65;22.30;;;;;;;;;;5090176;28;20052;-69
2022/08/17 15:23:00;;;;;;;24.73;22.13;;;;;;;;;;5082035;28;20056;-67